sensor_id;sensor_type;location;lat;lon;timestamp;P1;durP1;ratioP1;P2;durP2;ratioP2
10063;SDS011;5071;52.360;13.134;2022-07-30T00:00:50;3.30;;;1.57;;
10063;SDS011;5071;52.360;13.134;2022-07-30T00:05:54;3.07;;;1.10;;
10063;SDS011;5071;52.360;13.134;2022-07-30T00:10:56;1.70;;;1.33;;
10063;SDS011;5071;52.360;13.134;2022-07-30T00:15:58;1.63;;;1.43;;
10063;SDS011;5071;52.360;13.134;2022-07-30T00:21:02;2.93;;;1.60;;
10063;SDS011;5071;52.360;13.134;2022-07-30T00:26:04;4.00;;;1.50;;
10063;SDS011;5071;52.360;13.134;2022-07-30T00:31:07;3.00;;;1.37;;
10063;SDS011;5071;52.360;13.134;2022-07-30T00:36:11;1.27;;;1.17;;
10063;SDS011;5071;52.360;13.134;2022-07-30T00:41:13;1.50;;;1.33;;
10063;SDS011;5071;52.360;13.134;2022-07-30T00:46:16;3.47;;;1.40;;
10063;SDS011;5071;52.360;13.134;2022-07-30T00:51:20;4.23;;;2.13;;
10063;SDS011;5071;52.360;13.134;2022-07-30T00:56:22;2.43;;;1.50;;
10063;SDS011;5071;52.360;13.134;2022-07-30T01:01:24;3.80;;;1.40;;
10063;SDS011;5071;52.360;13.134;2022-07-30T01:06:27;2.83;;;1.30;;
10063;SDS011;5071;52.360;13.134;2022-07-30T01:11:30;2.80;;;1.13;;
10063;SDS011;5071;52.360;13.134;2022-07-30T01:16:37;3.00;;;1.67;;
10063;SDS011;5071;52.360;13.134;2022-07-30T01:21:42;2.90;;;1.50;;
10063;SDS011;5071;52.360;13.134;2022-07-30T01:26:49;4.13;;;1.60;;
10063;SDS011;5071;52.360;13.134;2022-07-30T01:31:51;1.93;;;1.67;;
10063;SDS011;5071;52.360;13.134;2022-07-30T01:36:57;2.07;;;1.43;;
10063;SDS011;5071;52.360;13.134;2022-07-30T01:42:02;2.20;;;1.60;;
10063;SDS011;5071;52.360;13.134;2022-07-30T01:47:07;1.63;;;1.40;;
10063;SDS011;5071;52.360;13.134;2022-07-30T01:52:10;2.60;;;1.10;;
10063;SDS011;5071;52.360;13.134;2022-07-30T01:57:14;1.53;;;1.20;;
10063;SDS011;5071;52.360;13.134;2022-07-30T02:02:19;5.80;;;1.80;;
10063;SDS011;5071;52.360;13.134;2022-07-30T02:07:22;2.37;;;1.60;;
10063;SDS011;5071;52.360;13.134;2022-07-30T02:12:29;3.63;;;1.53;;
10063;SDS011;5071;52.360;13.134;2022-07-30T02:17:36;2.37;;;1.50;;
10063;SDS011;5071;52.360;13.134;2022-07-30T02:22:46;3.63;;;1.47;;
10063;SDS011;5071;52.360;13.134;2022-07-30T02:27:51;1.87;;;1.70;;
10063;SDS011;5071;52.360;13.134;2022-07-30T02:32:58;2.77;;;1.43;;
10063;SDS011;5071;52.360;13.134;2022-07-30T02:38:04;2.70;;;1.50;;
10063;SDS011;5071;52.360;13.134;2022-07-30T02:43:09;2.10;;;1.40;;
10063;SDS011;5071;52.360;13.134;2022-07-30T02:48:14;3.33;;;1.40;;
10063;SDS011;5071;52.360;13.134;2022-07-30T02:53:36;4.10;;;1.10;;
10063;SDS011;5071;52.360;13.134;2022-07-30T02:58:41;2.40;;;1.67;;
10063;SDS011;5071;52.360;13.134;2022-07-30T03:03:45;3.17;;;1.67;;
10063;SDS011;5071;52.360;13.134;2022-07-30T03:08:49;3.37;;;1.50;;
10063;SDS011;5071;52.360;13.134;2022-07-30T03:13:55;1.87;;;1.60;;
10063;SDS011;5071;52.360;13.134;2022-07-30T03:18:57;3.07;;;1.43;;
10063;SDS011;5071;52.360;13.134;2022-07-30T03:24:05;2.17;;;1.40;;
10063;SDS011;5071;52.360;13.134;2022-07-30T03:29:11;5.10;;;1.33;;
10063;SDS011;5071;52.360;13.134;2022-07-30T03:34:15;2.40;;;1.50;;
10063;SDS011;5071;52.360;13.134;2022-07-30T03:39:18;1.43;;;1.33;;
10063;SDS011;5071;52.360;13.134;2022-07-30T03:44:22;2.53;;;1.40;;
10063;SDS011;5071;52.360;13.134;2022-07-30T03:49:25;1.70;;;1.27;;
10063;SDS011;5071;52.360;13.134;2022-07-30T03:54:29;5.17;;;1.77;;
10063;SDS011;5071;52.360;13.134;2022-07-30T03:59:33;4.13;;;1.57;;
10063;SDS011;5071;52.360;13.134;2022-07-30T04:04:39;2.13;;;1.60;;
10063;SDS011;5071;52.360;13.134;2022-07-30T04:09:42;1.73;;;1.40;;
10063;SDS011;5071;52.360;13.134;2022-07-30T04:14:45;2.20;;;1.70;;
10063;SDS011;5071;52.360;13.134;2022-07-30T04:19:48;1.57;;;1.47;;
10063;SDS011;5071;52.360;13.134;2022-07-30T04:24:53;2.20;;;1.47;;
10063;SDS011;5071;52.360;13.134;2022-07-30T04:29:57;5.53;;;1.70;;
10063;SDS011;5071;52.360;13.134;2022-07-30T04:34:59;4.07;;;1.37;;
10063;SDS011;5071;52.360;13.134;2022-07-30T04:40:02;4.67;;;1.97;;
10063;SDS011;5071;52.360;13.134;2022-07-30T04:45:06;4.47;;;1.77;;
10063;SDS011;5071;52.360;13.134;2022-07-30T04:50:12;3.00;;;1.60;;
10063;SDS011;5071;52.360;13.134;2022-07-30T04:55:15;3.17;;;1.80;;
10063;SDS011;5071;52.360;13.134;2022-07-30T05:00:21;2.13;;;1.50;;
10063;SDS011;5071;52.360;13.134;2022-07-30T05:05:23;2.47;;;1.43;;
10063;SDS011;5071;52.360;13.134;2022-07-30T05:10:25;3.70;;;1.17;;
10063;SDS011;5071;52.360;13.134;2022-07-30T05:15:29;1.90;;;1.50;;
10063;SDS011;5071;52.360;13.134;2022-07-30T05:20:37;4.30;;;1.70;;
10063;SDS011;5071;52.360;13.134;2022-07-30T05:25:40;1.80;;;1.30;;
10063;SDS011;5071;52.360;13.134;2022-07-30T05:30:43;1.40;;;1.20;;
10063;SDS011;5071;52.360;13.134;2022-07-30T05:35:47;2.20;;;1.43;;
10063;SDS011;5071;52.360;13.134;2022-07-30T05:40:50;4.43;;;1.43;;
10063;SDS011;5071;52.360;13.134;2022-07-30T05:45:54;3.23;;;1.43;;
10063;SDS011;5071;52.360;13.134;2022-07-30T05:50:56;2.77;;;1.40;;
10063;SDS011;5071;52.360;13.134;2022-07-30T05:55:58;1.40;;;1.30;;
10063;SDS011;5071;52.360;13.134;2022-07-30T06:01:01;2.33;;;1.53;;
10063;SDS011;5071;52.360;13.134;2022-07-30T06:06:03;3.07;;;1.70;;
10063;SDS011;5071;52.360;13.134;2022-07-30T06:11:07;3.95;;;1.40;;
10063;SDS011;5071;52.360;13.134;2022-07-30T06:16:11;1.95;;;1.30;;
10063;SDS011;5071;52.360;13.134;2022-07-30T06:21:13;3.15;;;1.65;;
10063;SDS011;5071;52.360;13.134;2022-07-30T06:26:15;3.28;;;1.15;;
10063;SDS011;5071;52.360;13.134;2022-07-30T06:31:18;2.13;;;1.15;;
10063;SDS011;5071;52.360;13.134;2022-07-30T06:36:21;3.15;;;1.75;;
10063;SDS011;5071;52.360;13.134;2022-07-30T06:41:23;8.18;;;1.77;;
10063;SDS011;5071;52.360;13.134;2022-07-30T06:46:26;1.17;;;0.90;;
10063;SDS011;5071;52.360;13.134;2022-07-30T06:51:28;3.10;;;1.30;;
10063;SDS011;5071;52.360;13.134;2022-07-30T06:56:31;1.52;;;0.88;;
10063;SDS011;5071;52.360;13.134;2022-07-30T07:01:34;1.30;;;1.00;;
10063;SDS011;5071;52.360;13.134;2022-07-30T07:06:36;1.20;;;1.02;;
10063;SDS011;5071;52.360;13.134;2022-07-30T07:11:39;3.22;;;0.90;;
10063;SDS011;5071;52.360;13.134;2022-07-30T07:16:42;2.90;;;1.10;;
10063;SDS011;5071;52.360;13.134;2022-07-30T07:21:49;1.98;;;1.23;;
10063;SDS011;5071;52.360;13.134;2022-07-30T07:26:51;1.02;;;0.93;;
10063;SDS011;5071;52.360;13.134;2022-07-30T07:31:55;1.52;;;1.00;;
10063;SDS011;5071;52.360;13.134;2022-07-30T07:37:08;2.22;;;1.10;;
10063;SDS011;5071;52.360;13.134;2022-07-30T07:42:10;1.05;;;0.85;;
10063;SDS011;5071;52.360;13.134;2022-07-30T07:47:13;1.92;;;1.00;;
10063;SDS011;5071;52.360;13.134;2022-07-30T07:52:15;2.40;;;1.77;;
10063;SDS011;5071;52.360;13.134;2022-07-30T07:57:17;2.40;;;1.23;;
10063;SDS011;5071;52.360;13.134;2022-07-30T08:02:22;2.80;;;1.23;;
10063;SDS011;5071;52.360;13.134;2022-07-30T08:07:24;1.52;;;1.00;;
10063;SDS011;5071;52.360;13.134;2022-07-30T08:12:26;3.15;;;1.40;;
10063;SDS011;5071;52.360;13.134;2022-07-30T08:17:30;1.10;;;1.00;;
10063;SDS011;5071;52.360;13.134;2022-07-30T08:22:33;3.55;;;1.10;;
10063;SDS011;5071;52.360;13.134;2022-07-30T08:27:35;1.92;;;1.20;;
10063;SDS011;5071;52.360;13.134;2022-07-30T08:32:38;2.92;;;1.20;;
10063;SDS011;5071;52.360;13.134;2022-07-30T08:37:40;1.35;;;1.00;;
10063;SDS011;5071;52.360;13.134;2022-07-30T08:42:42;4.38;;;1.50;;
10063;SDS011;5071;52.360;13.134;2022-07-30T08:47:46;1.73;;;1.23;;
10063;SDS011;5071;52.360;13.134;2022-07-30T08:52:50;4.82;;;1.40;;
10063;SDS011;5071;52.360;13.134;2022-07-30T08:57:53;1.92;;;1.10;;
10063;SDS011;5071;52.360;13.134;2022-07-30T09:02:57;1.30;;;1.20;;
10063;SDS011;5071;52.360;13.134;2022-07-30T09:07:59;1.40;;;1.30;;
10063;SDS011;5071;52.360;13.134;2022-07-30T09:13:04;4.50;;;1.75;;
10063;SDS011;5071;52.360;13.134;2022-07-30T09:18:07;2.35;;;1.40;;
10063;SDS011;5071;52.360;13.134;2022-07-30T09:23:09;2.72;;;1.33;;
10063;SDS011;5071;52.360;13.134;2022-07-30T09:28:12;2.22;;;1.27;;
10063;SDS011;5071;52.360;13.134;2022-07-30T09:33:30;1.20;;;1.08;;
10063;SDS011;5071;52.360;13.134;2022-07-30T09:38:45;2.67;;;1.40;;
10063;SDS011;5071;52.360;13.134;2022-07-30T09:43:49;2.53;;;1.40;;
10063;SDS011;5071;52.360;13.134;2022-07-30T09:48:54;3.08;;;1.42;;
10063;SDS011;5071;52.360;13.134;2022-07-30T09:54:14;1.45;;;1.10;;
10063;SDS011;5071;52.360;13.134;2022-07-30T09:59:25;2.42;;;1.42;;
10063;SDS011;5071;52.360;13.134;2022-07-30T10:04:36;1.75;;;1.10;;
10063;SDS011;5071;52.360;13.134;2022-07-30T10:09:40;2.13;;;1.20;;
10063;SDS011;5071;52.360;13.134;2022-07-30T10:14:45;2.47;;;1.50;;
10063;SDS011;5071;52.360;13.134;2022-07-30T10:19:48;1.20;;;1.10;;
10063;SDS011;5071;52.360;13.134;2022-07-30T10:24:51;1.60;;;1.10;;
10063;SDS011;5071;52.360;13.134;2022-07-30T10:29:54;1.52;;;1.10;;
10063;SDS011;5071;52.360;13.134;2022-07-30T10:34:58;3.17;;;1.35;;
10063;SDS011;5071;52.360;13.134;2022-07-30T10:40:02;2.25;;;1.10;;
10063;SDS011;5071;52.360;13.134;2022-07-30T10:45:16;1.08;;;1.05;;
10063;SDS011;5071;52.360;13.134;2022-07-30T10:50:21;0.88;;;0.88;;
10063;SDS011;5071;52.360;13.134;2022-07-30T10:55:25;1.40;;;1.20;;
10063;SDS011;5071;52.360;13.134;2022-07-30T11:11:43;1.98;;;1.05;;
10063;SDS011;5071;52.360;13.134;2022-07-30T11:17:06;4.07;;;1.15;;
10063;SDS011;5071;52.360;13.134;2022-07-30T11:22:22;1.88;;;1.13;;
10063;SDS011;5071;52.360;13.134;2022-07-30T11:27:32;1.10;;;1.00;;
10063;SDS011;5071;52.360;13.134;2022-07-30T11:32:36;2.65;;;1.00;;
10063;SDS011;5071;52.360;13.134;2022-07-30T11:37:59;3.35;;;1.00;;
10063;SDS011;5071;52.360;13.134;2022-07-30T11:43:14;0.98;;;0.90;;
10063;SDS011;5071;52.360;13.134;2022-07-30T11:48:37;2.97;;;1.27;;
10063;SDS011;5071;52.360;13.134;2022-07-30T11:53:42;1.45;;;1.08;;
10063;SDS011;5071;52.360;13.134;2022-07-30T11:58:46;1.15;;;1.02;;
10063;SDS011;5071;52.360;13.134;2022-07-30T12:03:48;1.00;;;1.00;;
10063;SDS011;5071;52.360;13.134;2022-07-30T12:08:52;1.10;;;0.98;;
10063;SDS011;5071;52.360;13.134;2022-07-30T12:13:59;4.38;;;1.50;;
10063;SDS011;5071;52.360;13.134;2022-07-30T12:19:02;1.92;;;0.90;;
10063;SDS011;5071;52.360;13.134;2022-07-30T12:24:06;2.22;;;1.02;;
10063;SDS011;5071;52.360;13.134;2022-07-30T12:29:09;1.30;;;0.90;;
10063;SDS011;5071;52.360;13.134;2022-07-30T12:34:18;1.05;;;0.95;;
10063;SDS011;5071;52.360;13.134;2022-07-30T12:39:23;2.97;;;0.80;;
10063;SDS011;5071;52.360;13.134;2022-07-30T12:44:32;0.93;;;0.80;;
10063;SDS011;5071;52.360;13.134;2022-07-30T12:49:35;3.30;;;1.00;;
10063;SDS011;5071;52.360;13.134;2022-07-30T12:55:04;2.50;;;1.38;;
10063;SDS011;5071;52.360;13.134;2022-07-30T13:00:08;1.65;;;0.80;;
10063;SDS011;5071;52.360;13.134;2022-07-30T13:05:11;1.88;;;0.70;;
10063;SDS011;5071;52.360;13.134;2022-07-30T13:10:14;2.50;;;0.90;;
10063;SDS011;5071;52.360;13.134;2022-07-30T13:15:17;1.15;;;0.80;;
10063;SDS011;5071;52.360;13.134;2022-07-30T13:20:19;1.75;;;1.65;;
10063;SDS011;5071;52.360;13.134;2022-07-30T13:25:22;1.42;;;0.98;;
10063;SDS011;5071;52.360;13.134;2022-07-30T13:30:25;1.60;;;1.05;;
10063;SDS011;5071;52.360;13.134;2022-07-30T13:35:26;1.52;;;1.00;;
10063;SDS011;5071;52.360;13.134;2022-07-30T13:40:29;1.83;;;1.08;;
10063;SDS011;5071;52.360;13.134;2022-07-30T13:45:32;2.15;;;1.05;;
10063;SDS011;5071;52.360;13.134;2022-07-30T13:50:35;1.20;;;0.98;;
10063;SDS011;5071;52.360;13.134;2022-07-30T13:55:38;0.95;;;0.88;;
10063;SDS011;5071;52.360;13.134;2022-07-30T14:00:41;0.77;;;0.77;;
10063;SDS011;5071;52.360;13.134;2022-07-30T14:05:43;1.10;;;0.90;;
10063;SDS011;5071;52.360;13.134;2022-07-30T14:10:46;2.10;;;1.15;;
10063;SDS011;5071;52.360;13.134;2022-07-30T14:15:48;1.75;;;1.10;;
10063;SDS011;5071;52.360;13.134;2022-07-30T14:20:50;1.42;;;1.05;;
10063;SDS011;5071;52.360;13.134;2022-07-30T14:25:53;2.58;;;1.20;;
10063;SDS011;5071;52.360;13.134;2022-07-30T14:30:55;1.40;;;1.08;;
10063;SDS011;5071;52.360;13.134;2022-07-30T14:35:57;2.75;;;1.10;;
10063;SDS011;5071;52.360;13.134;2022-07-30T14:41:00;1.23;;;1.13;;
10063;SDS011;5071;52.360;13.134;2022-07-30T14:46:02;1.50;;;1.10;;
10063;SDS011;5071;52.360;13.134;2022-07-30T14:51:04;2.20;;;0.90;;
10063;SDS011;5071;52.360;13.134;2022-07-30T14:56:26;2.00;;;1.00;;
10063;SDS011;5071;52.360;13.134;2022-07-30T15:01:28;1.98;;;1.00;;
10063;SDS011;5071;52.360;13.134;2022-07-30T15:06:30;1.95;;;0.95;;
10063;SDS011;5071;52.360;13.134;2022-07-30T15:11:33;1.75;;;0.88;;
10063;SDS011;5071;52.360;13.134;2022-07-30T15:16:56;2.05;;;1.15;;
10063;SDS011;5071;52.360;13.134;2022-07-30T15:22:04;1.35;;;1.25;;
10063;SDS011;5071;52.360;13.134;2022-07-30T15:27:08;2.45;;;1.55;;
10063;SDS011;5071;52.360;13.134;2022-07-30T15:32:10;2.13;;;1.27;;
10063;SDS011;5071;52.360;13.134;2022-07-30T15:37:12;4.82;;;1.13;;
10063;SDS011;5071;52.360;13.134;2022-07-30T15:42:15;1.00;;;1.00;;
10063;SDS011;5071;52.360;13.134;2022-07-30T15:47:17;1.63;;;1.00;;
10063;SDS011;5071;52.360;13.134;2022-07-30T15:52:19;2.45;;;1.20;;
10063;SDS011;5071;52.360;13.134;2022-07-30T15:57:23;1.85;;;1.00;;
10063;SDS011;5071;52.360;13.134;2022-07-30T16:02:25;2.58;;;0.98;;
10063;SDS011;5071;52.360;13.134;2022-07-30T16:07:27;1.17;;;1.00;;
10063;SDS011;5071;52.360;13.134;2022-07-30T16:12:31;1.55;;;1.13;;
10063;SDS011;5071;52.360;13.134;2022-07-30T16:17:33;3.50;;;1.10;;
10063;SDS011;5071;52.360;13.134;2022-07-30T16:22:37;2.65;;;1.20;;
10063;SDS011;5071;52.360;13.134;2022-07-30T16:27:40;1.17;;;1.08;;
10063;SDS011;5071;52.360;13.134;2022-07-30T16:32:42;1.17;;;1.00;;
10063;SDS011;5071;52.360;13.134;2022-07-30T16:37:44;1.05;;;0.77;;
10063;SDS011;5071;52.360;13.134;2022-07-30T16:42:47;0.98;;;0.80;;
10063;SDS011;5071;52.360;13.134;2022-07-30T16:47:49;1.15;;;0.95;;
10063;SDS011;5071;52.360;13.134;2022-07-30T16:52:52;1.10;;;1.00;;
10063;SDS011;5071;52.360;13.134;2022-07-30T16:57:55;1.83;;;1.00;;
10063;SDS011;5071;52.360;13.134;2022-07-30T17:02:56;1.25;;;0.90;;
10063;SDS011;5071;52.360;13.134;2022-07-30T17:07:58;2.10;;;1.20;;
10063;SDS011;5071;52.360;13.134;2022-07-30T17:13:02;1.38;;;1.10;;
10063;SDS011;5071;52.360;13.134;2022-07-30T17:18:04;1.20;;;0.90;;
10063;SDS011;5071;52.360;13.134;2022-07-30T17:23:06;2.40;;;1.50;;
10063;SDS011;5071;52.360;13.134;2022-07-30T17:28:09;1.83;;;1.20;;
10063;SDS011;5071;52.360;13.134;2022-07-30T17:33:11;3.70;;;1.48;;
10063;SDS011;5071;52.360;13.134;2022-07-30T17:38:13;2.47;;;1.75;;
10063;SDS011;5071;52.360;13.134;2022-07-30T17:43:16;5.32;;;2.03;;
10063;SDS011;5071;52.360;13.134;2022-07-30T17:48:18;1.33;;;1.05;;
10063;SDS011;5071;52.360;13.134;2022-07-30T17:53:19;2.55;;;1.13;;
10063;SDS011;5071;52.360;13.134;2022-07-30T17:58:23;1.77;;;1.00;;
10063;SDS011;5071;52.360;13.134;2022-07-30T18:03:24;2.17;;;1.38;;
10063;SDS011;5071;52.360;13.134;2022-07-30T18:08:26;2.35;;;1.40;;
10063;SDS011;5071;52.360;13.134;2022-07-30T18:13:29;1.88;;;1.45;;
10063;SDS011;5071;52.360;13.134;2022-07-30T18:18:31;5.18;;;2.83;;
10063;SDS011;5071;52.360;13.134;2022-07-30T18:23:33;2.80;;;1.30;;
10063;SDS011;5071;52.360;13.134;2022-07-30T18:28:37;1.48;;;1.10;;
10063;SDS011;5071;52.360;13.134;2022-07-30T18:33:39;1.95;;;1.17;;
10063;SDS011;5071;52.360;13.134;2022-07-30T18:38:41;4.32;;;1.48;;
10063;SDS011;5071;52.360;13.134;2022-07-30T18:43:44;2.03;;;1.35;;
10063;SDS011;5071;52.360;13.134;2022-07-30T18:48:48;2.90;;;1.77;;
10063;SDS011;5071;52.360;13.134;2022-07-30T18:53:51;3.28;;;1.63;;
10063;SDS011;5071;52.360;13.134;2022-07-30T18:58:54;2.58;;;1.25;;
10063;SDS011;5071;52.360;13.134;2022-07-30T19:03:56;3.20;;;1.10;;
10063;SDS011;5071;52.360;13.134;2022-07-30T19:08:58;1.98;;;1.50;;
10063;SDS011;5071;52.360;13.134;2022-07-30T19:14:01;3.47;;;1.48;;
10063;SDS011;5071;52.360;13.134;2022-07-30T19:19:04;1.77;;;1.17;;
10063;SDS011;5071;52.360;13.134;2022-07-30T19:24:06;4.03;;;2.85;;
10063;SDS011;5071;52.360;13.134;2022-07-30T19:29:09;3.28;;;1.70;;
10063;SDS011;5071;52.360;13.134;2022-07-30T19:34:11;1.75;;;1.40;;
10063;SDS011;5071;52.360;13.134;2022-07-30T19:39:13;2.00;;;1.50;;
10063;SDS011;5071;52.360;13.134;2022-07-30T19:44:23;2.90;;;1.30;;
10063;SDS011;5071;52.360;13.134;2022-07-30T19:49:25;1.40;;;1.17;;
10063;SDS011;5071;52.360;13.134;2022-07-30T19:54:30;2.38;;;1.23;;
10063;SDS011;5071;52.360;13.134;2022-07-30T19:59:33;2.10;;;1.30;;
10063;SDS011;5071;52.360;13.134;2022-07-30T20:04:55;2.50;;;1.83;;
10063;SDS011;5071;52.360;13.134;2022-07-30T20:09:57;3.50;;;2.10;;
10063;SDS011;5071;52.360;13.134;2022-07-30T20:15:00;1.73;;;1.50;;
10063;SDS011;5071;52.360;13.134;2022-07-30T20:20:04;1.90;;;1.70;;
10063;SDS011;5071;52.360;13.134;2022-07-30T20:25:07;1.37;;;1.27;;
10063;SDS011;5071;52.360;13.134;2022-07-30T20:30:11;2.27;;;1.60;;
10063;SDS011;5071;52.360;13.134;2022-07-30T20:35:13;2.40;;;1.53;;
10063;SDS011;5071;52.360;13.134;2022-07-30T20:40:15;4.00;;;2.37;;
10063;SDS011;5071;52.360;13.134;2022-07-30T20:45:18;1.47;;;1.30;;
10063;SDS011;5071;52.360;13.134;2022-07-30T20:50:25;3.03;;;1.43;;
10063;SDS011;5071;52.360;13.134;2022-07-30T20:55:31;2.30;;;1.70;;
10063;SDS011;5071;52.360;13.134;2022-07-30T21:00:35;2.30;;;1.80;;
10063;SDS011;5071;52.360;13.134;2022-07-30T21:05:37;1.53;;;1.30;;
10063;SDS011;5071;52.360;13.134;2022-07-30T21:10:39;2.53;;;1.40;;
10063;SDS011;5071;52.360;13.134;2022-07-30T21:15:47;1.80;;;1.40;;
10063;SDS011;5071;52.360;13.134;2022-07-30T21:21:03;1.53;;;1.40;;
10063;SDS011;5071;52.360;13.134;2022-07-30T21:26:06;2.10;;;1.60;;
10063;SDS011;5071;52.360;13.134;2022-07-30T21:31:15;2.27;;;1.73;;
10063;SDS011;5071;52.360;13.134;2022-07-30T21:36:17;2.77;;;1.57;;
10063;SDS011;5071;52.360;13.134;2022-07-30T21:41:25;2.00;;;1.80;;
10063;SDS011;5071;52.360;13.134;2022-07-30T21:46:42;1.93;;;1.57;;
10063;SDS011;5071;52.360;13.134;2022-07-30T21:51:44;2.73;;;2.10;;
10063;SDS011;5071;52.360;13.134;2022-07-30T21:56:46;2.13;;;1.90;;
10063;SDS011;5071;52.360;13.134;2022-07-30T22:01:49;2.03;;;1.60;;
10063;SDS011;5071;52.360;13.134;2022-07-30T22:06:55;3.63;;;1.77;;
10063;SDS011;5071;52.360;13.134;2022-07-30T22:12:02;1.93;;;1.70;;
10063;SDS011;5071;52.360;13.134;2022-07-30T22:17:13;2.23;;;2.10;;
10063;SDS011;5071;52.360;13.134;2022-07-30T22:22:35;2.50;;;2.20;;
10063;SDS011;5071;52.360;13.134;2022-07-30T22:27:38;2.90;;;1.90;;
10063;SDS011;5071;52.360;13.134;2022-07-30T22:33:12;2.50;;;2.10;;
10063;SDS011;5071;52.360;13.134;2022-07-30T22:38:15;2.00;;;1.87;;
10063;SDS011;5071;52.360;13.134;2022-07-30T22:43:20;1.93;;;1.80;;
10063;SDS011;5071;52.360;13.134;2022-07-30T22:48:23;2.57;;;2.00;;
10063;SDS011;5071;52.360;13.134;2022-07-30T22:53:28;2.00;;;1.80;;
10063;SDS011;5071;52.360;13.134;2022-07-30T22:58:50;3.50;;;2.67;;
10063;SDS011;5071;52.360;13.134;2022-07-30T23:03:53;2.30;;;2.10;;
10063;SDS011;5071;52.360;13.134;2022-07-30T23:08:55;2.40;;;2.10;;
10063;SDS011;5071;52.360;13.134;2022-07-30T23:13:57;2.07;;;1.87;;
10063;SDS011;5071;52.360;13.134;2022-07-30T23:19:00;2.13;;;1.93;;
10063;SDS011;5071;52.360;13.134;2022-07-30T23:24:04;2.20;;;1.83;;
10063;SDS011;5071;52.360;13.134;2022-07-30T23:29:06;2.33;;;2.10;;
10063;SDS011;5071;52.360;13.134;2022-07-30T23:34:15;2.03;;;1.90;;
10063;SDS011;5071;52.360;13.134;2022-07-30T23:39:17;5.07;;;2.37;;
10063;SDS011;5071;52.360;13.134;2022-07-30T23:44:19;3.00;;;2.47;;
10063;SDS011;5071;52.360;13.134;2022-07-30T23:49:22;2.33;;;2.13;;
10063;SDS011;5071;52.360;13.134;2022-07-30T23:54:24;3.43;;;2.63;;
10063;SDS011;5071;52.360;13.134;2022-07-30T23:59:25;3.53;;;2.43;;
